createdAt,value
2023-05-17T00:02:06.660Z,96050.59
2023-05-17T00:04:33.843Z,96053.09
2023-05-17T00:07:00.663Z,96050.59
2023-05-17T00:09:27.465Z,96040.44
2023-05-17T00:11:54.171Z,96051.41
2023-05-17T00:14:21.182Z,96059.28
2023-05-17T00:16:48.192Z,96069.34
2023-05-17T00:19:15.732Z,96075.75
2023-05-17T00:21:43.011Z,96078.13
2023-05-17T00:24:09.930Z,96078.03
2023-05-17T00:26:37.002Z,96085.09
2023-05-17T00:29:03.975Z,96077.47
2023-05-17T00:31:31.409Z,96088.19
2023-05-17T00:33:58.465Z,96078.47
2023-05-17T00:36:25.569Z,96087.13
2023-05-17T00:38:52.308Z,96092.78
2023-05-17T00:41:19.227Z,96105.16
2023-05-17T00:43:46.258Z,96105.28
2023-05-17T00:46:12.899Z,96105.16
2023-05-17T00:48:40.453Z,96109.16
2023-05-17T00:51:07.833Z,96110.13
2023-05-17T00:53:37.241Z,96112.41
2023-05-17T00:56:05.433Z,96108.41
2023-05-17T00:58:34.142Z,96107.25
2023-05-17T01:01:01.721Z,96100.84
2023-05-17T01:03:28.608Z,96112.75
2023-05-17T01:05:55.759Z,96107.94
2023-05-17T01:08:22.812Z,96111.69
2023-05-17T01:11:13.947Z,96117.19
2023-05-17T01:13:58.800Z,96112.03
2023-05-17T01:16:33.356Z,96111.25
2023-05-17T01:19:22.960Z,96120.38
2023-05-17T01:21:55.681Z,96121.97
2023-05-17T01:24:27.535Z,96132.94
2023-05-17T01:26:55.830Z,96129.50
2023-05-17T01:29:26.945Z,96131.56
2023-05-17T01:31:58.035Z,96134.75
2023-05-17T01:34:29.100Z,96145.03
2023-05-17T01:36:57.681Z,96143.53
2023-05-17T01:39:24.333Z,96146.41
2023-05-17T01:42:23.174Z,96153.47
2023-05-17T01:45:18.276Z,96157.59
2023-05-17T01:47:47.752Z,96158.75
2023-05-17T01:50:17.790Z,96160.56
2023-05-17T01:52:59.846Z,96156.19
2023-05-17T01:55:52.503Z,96167.28
2023-05-17T01:58:26.217Z,96159.63
2023-05-17T02:00:55.832Z,96163.88
2023-05-17T02:03:23.031Z,96169.34
2023-05-17T02:05:52.986Z,96169.00
2023-05-17T02:08:20.102Z,96178.47
2023-05-17T02:10:47.400Z,96173.81
2023-05-17T02:13:14.826Z,96182.03
2023-05-17T02:15:42.094Z,96176.53
2023-05-17T02:18:09.203Z,96181.22
2023-05-17T02:20:36.000Z,96178.13
2023-05-17T02:23:02.876Z,96182.50
2023-05-17T02:25:29.829Z,96187.63
2023-05-17T02:27:57.251Z,96180.44
2023-05-17T02:30:24.904Z,96183.53
2023-05-17T02:32:52.761Z,96193.81
2023-05-17T02:35:19.951Z,96184.88
2023-05-17T02:37:47.059Z,96187.03
2023-05-17T02:40:14.279Z,96193.69
2023-05-17T02:42:40.903Z,96196.44
2023-05-17T02:45:08.029Z,96192.09
2023-05-17T02:47:34.918Z,96196.44
2023-05-17T02:50:02.128Z,96197.13
2023-05-17T02:52:31.149Z,96206.94
2023-05-17T02:54:58.748Z,96211.50
2023-05-17T02:57:26.192Z,96208.75
2023-05-17T02:59:53.941Z,96212.97
2023-05-17T03:02:21.817Z,96212.19
2023-05-17T03:04:48.619Z,96216.06
2023-05-17T03:07:15.526Z,96216.31
2023-05-17T03:09:43.211Z,96223.25
2023-05-17T03:12:10.521Z,96226.81
2023-05-17T03:14:38.304Z,96235.03
2023-05-17T03:17:05.507Z,96235.38
2023-05-17T03:19:34.364Z,96242.34
2023-05-17T03:22:01.080Z,96241.53
2023-05-17T03:24:27.884Z,96241.41
2023-05-17T03:26:54.520Z,96249.16
2023-05-17T03:29:22.084Z,96252.72
2023-05-17T03:31:49.411Z,96244.63
2023-05-17T03:34:16.541Z,96249.63
2023-05-17T03:36:43.850Z,96249.63
2023-05-17T03:39:12.050Z,96252.16
2023-05-17T03:41:42.266Z,96262.50
2023-05-17T03:44:09.633Z,96260.47
2023-05-17T03:46:37.050Z,96262.41
2023-05-17T03:49:04.735Z,96270.63
2023-05-17T03:51:33.410Z,96273.13
2023-05-17T03:54:01.703Z,96277.00
2023-05-17T03:56:30.233Z,96278.72
2023-05-17T03:58:57.408Z,96277.47
2023-05-17T04:01:24.273Z,96284.06
2023-05-17T04:03:51.015Z,96279.28
2023-05-17T04:06:19.899Z,96295.16
2023-05-17T04:08:46.980Z,96300.06
2023-05-17T04:11:14.647Z,96298.47
2023-05-17T04:13:42.682Z,96301.66
2023-05-17T04:16:09.957Z,96310.69
2023-05-17T04:18:39.956Z,96306.69
2023-05-17T04:21:07.525Z,96305.22
2023-05-17T04:23:35.929Z,96306.00
2023-05-17T04:26:05.279Z,96308.72
2023-05-17T04:28:35.607Z,96313.31
2023-05-17T04:31:08.187Z,96310.34
2023-05-17T04:33:36.910Z,96314.00
2023-05-17T04:36:05.384Z,96322.44
2023-05-17T04:38:32.791Z,96325.16
2023-05-17T04:41:06.765Z,96326.78
2023-05-17T04:43:37.166Z,96338.88
2023-05-17T04:46:09.159Z,96342.09
2023-05-17T04:48:36.990Z,96342.91
2023-05-17T04:51:04.550Z,96343.00
2023-05-17T04:53:32.081Z,96337.53
2023-05-17T04:56:01.506Z,96340.72
2023-05-17T04:58:28.265Z,96345.41
2023-05-17T05:00:58.251Z,96346.22
2023-05-17T05:03:24.972Z,96352.50
2023-05-17T05:05:51.776Z,96356.50
2023-05-17T05:08:18.753Z,96357.63
2023-05-17T05:10:46.350Z,96369.03
2023-05-17T05:13:15.885Z,96370.88
2023-05-17T05:15:43.762Z,96374.88
2023-05-17T05:18:10.853Z,96377.75
2023-05-17T05:20:38.532Z,96382.53
2023-05-17T05:23:06.366Z,96390.41
2023-05-17T05:25:34.485Z,96394.38
2023-05-17T05:28:01.893Z,96394.63
2023-05-17T05:30:30.046Z,96389.13
2023-05-17T05:32:57.008Z,96394.84
2023-05-17T05:35:29.786Z,96402.16
2023-05-17T05:37:58.399Z,96409.22
2023-05-17T05:40:25.557Z,96411.63
2023-05-17T05:42:53.776Z,96416.91
2023-05-17T05:45:21.887Z,96426.16
2023-05-17T05:47:50.173Z,96427.56
2023-05-17T05:50:19.484Z,96429.50
2023-05-17T05:52:47.622Z,96430.56
2023-05-17T05:55:14.480Z,96435.25
2023-05-17T05:57:41.216Z,96438.91
2023-05-17T06:00:09.056Z,96432.34
2023-05-17T06:02:39.886Z,96442.16
2023-05-17T06:05:07.407Z,96436.84
2023-05-17T06:07:34.022Z,96431.78
2023-05-17T06:10:00.883Z,96440.47
2023-05-17T06:12:27.746Z,96443.31
2023-05-17T06:14:55.402Z,96443.94
2023-05-17T06:17:23.511Z,96451.69
2023-05-17T06:19:50.392Z,96449.59
2023-05-17T06:22:17.258Z,96456.00
2023-05-17T06:24:44.107Z,96461.28
2023-05-17T06:27:10.972Z,96456.34
2023-05-17T06:29:37.766Z,96462.78
2023-05-17T06:32:04.972Z,96459.22
2023-05-17T06:34:31.721Z,96463.59
2023-05-17T06:36:58.709Z,96467.53
2023-05-17T06:39:25.570Z,96472.19
2023-05-17T06:41:52.327Z,96476.00
2023-05-17T06:44:19.096Z,96472.00
2023-05-17T06:46:45.776Z,96470.50
2023-05-17T06:49:12.502Z,96480.13
2023-05-17T06:51:39.307Z,96476.53
2023-05-17T06:54:06.173Z,96485.44
2023-05-17T06:56:33.448Z,96485.00
2023-05-17T06:59:00.196Z,96489.97
2023-05-17T07:01:28.131Z,96493.22
2023-05-17T07:03:54.960Z,96510.34
2023-05-17T07:06:21.833Z,96509.56
2023-05-17T07:08:48.634Z,96514.00
2023-05-17T07:11:15.640Z,96520.13
2023-05-17T07:13:42.455Z,96518.00
2023-05-17T07:16:09.442Z,96524.13
2023-05-17T07:18:36.252Z,96525.72
2023-05-17T07:21:03.068Z,96527.78
2023-05-17T07:23:29.865Z,96527.56
2023-05-17T07:25:56.576Z,96530.09
2023-05-17T07:28:23.329Z,96538.66
2023-05-17T07:30:50.872Z,96539.44
2023-05-17T07:33:17.535Z,96551.81
2023-05-17T07:35:44.271Z,96547.44
2023-05-17T07:38:11.461Z,96550.97
2023-05-17T07:40:38.195Z,96555.47
2023-05-17T07:43:05.079Z,96559.03
2023-05-17T07:45:31.937Z,96561.75
2023-05-17T07:47:59.167Z,96568.78
2023-05-17T07:50:26.434Z,96572.31
2023-05-17T07:52:53.691Z,96566.47
2023-05-17T07:55:21.403Z,96568.06
2023-05-17T07:57:48.284Z,96577.78
2023-05-17T08:00:16.238Z,96576.53
2023-05-17T08:02:43.144Z,96575.09
2023-05-17T08:05:10.511Z,96575.44
2023-05-17T08:07:37.270Z,96577.53
2023-05-17T08:10:04.242Z,96577.03
2023-05-17T08:12:31.216Z,96583.78
2023-05-17T08:14:58.101Z,96582.97
2023-05-17T08:17:27.698Z,96597.06
2023-05-17T08:19:54.736Z,96590.97
2023-05-17T08:22:21.605Z,96600.25
2023-05-17T08:24:48.302Z,96604.59
2023-05-17T08:27:15.096Z,96596.00
2023-05-17T08:29:41.996Z,96602.88
2023-05-17T08:32:08.750Z,96607.34
2023-05-17T08:34:35.816Z,96607.09
2023-05-17T08:37:02.736Z,96605.88
2023-05-17T08:39:29.590Z,96606.25
2023-05-17T08:41:59.686Z,96610.19
2023-05-17T08:44:28.379Z,96609.56
2023-05-17T08:46:55.920Z,96612.16
2023-05-17T08:49:26.548Z,96616.63
2023-05-17T08:51:59.408Z,96622.59
2023-05-17T08:54:26.696Z,96623.41
2023-05-17T08:57:00.304Z,96618.81
2023-05-17T08:59:33.857Z,96623.31
2023-05-17T09:02:01.336Z,96633.63
2023-05-17T09:04:31.082Z,96639.94
2023-05-17T09:06:57.900Z,96636.06
2023-05-17T09:09:25.884Z,96636.38
2023-05-17T09:11:52.765Z,96637.47
2023-05-17T09:14:19.627Z,96640.34
2023-05-17T09:16:46.432Z,96639.72
2023-05-17T09:19:18.037Z,96647.91
2023-05-17T09:21:48.104Z,96649.72
2023-05-17T09:24:15.019Z,96641.19
2023-05-17T09:26:44.206Z,96631.69
2023-05-17T09:29:15.926Z,96633.47
2023-05-17T09:31:44.035Z,96632.97
2023-05-17T09:34:12.297Z,96637.34
2023-05-17T09:36:43.524Z,96632.00
2023-05-17T09:39:13.177Z,96635.25
2023-05-17T09:41:51.152Z,96634.16
2023-05-17T09:44:18.023Z,96637.38
2023-05-17T09:46:48.069Z,96640.28
2023-05-17T09:49:16.603Z,96635.13
2023-05-17T09:51:45.875Z,96632.56
2023-05-17T09:54:13.332Z,96638.31
2023-05-17T09:56:40.582Z,96637.88
2023-05-17T09:59:15.217Z,96635.09
2023-05-17T10:01:44.140Z,96634.13
2023-05-17T10:04:12.822Z,96635.72
2023-05-17T10:09:14.914Z,96627.66
2023-05-17T10:11:45.981Z,96626.56
2023-05-17T10:14:34.152Z,96620.09
2023-05-17T10:17:02.603Z,96619.44
2023-05-17T10:19:32.417Z,96624.59
2023-05-17T10:22:14.772Z,96623.44
2023-05-17T10:24:49.896Z,96621.31
2023-05-17T10:27:17.183Z,96620.03
2023-05-17T10:29:47.021Z,96620.31
2023-05-17T10:32:17.374Z,96619.38
2023-05-17T10:34:51.829Z,96616.75
2023-05-17T10:37:25.971Z,96604.56
2023-05-17T10:39:53.221Z,96614.41
2023-05-17T10:42:22.727Z,96621.06
2023-05-17T10:44:49.526Z,96624.75
2023-05-17T10:47:16.450Z,96627.13
2023-05-17T10:49:48.070Z,96623.25
2023-05-17T10:52:21.321Z,96616.44
2023-05-17T10:54:50.614Z,96628.78
2023-05-17T10:57:39.094Z,96628.75
2023-05-17T11:00:21.065Z,96629.50
2023-05-17T11:02:49.051Z,96625.25
2023-05-17T11:05:27.175Z,96632.44
2023-05-17T11:08:12.897Z,96631.44
2023-05-17T11:10:39.928Z,96630.63
2023-05-17T11:13:23.260Z,96629.53
2023-05-17T11:16:08.523Z,96623.41
2023-05-17T11:18:49.376Z,96619.09
2023-05-17T11:21:17.062Z,96627.84
2023-05-17T11:23:45.746Z,96634.72
2023-05-17T11:26:22.397Z,96633.19
2023-05-17T11:29:00.041Z,96634.81
2023-05-17T11:31:31.970Z,96639.34
2023-05-17T11:33:59.528Z,96630.69
2023-05-17T11:36:26.407Z,96640.41
2023-05-17T11:39:13.598Z,96635.38
2023-05-17T11:41:49.551Z,96626.09
2023-05-17T11:44:30.344Z,96629.41
2023-05-17T11:47:11.565Z,96633.31
2023-05-17T11:49:39.670Z,96620.94
2023-05-17T11:52:07.392Z,96618.41
2023-05-17T11:54:35.010Z,96612.75
2023-05-17T11:57:03.905Z,96612.66
2023-05-17T11:59:38.622Z,96616.63
2023-05-17T12:02:05.739Z,96606.63
2023-05-17T12:04:37.363Z,96614.53
2023-05-17T12:07:04.459Z,96608.66
2023-05-17T12:09:31.570Z,96606.25
2023-05-17T12:11:59.975Z,96600.75
2023-05-17T12:14:26.632Z,96607.19
2023-05-17T12:16:58.973Z,96601.50
2023-05-17T12:19:27.903Z,96598.66
2023-05-17T12:21:54.847Z,96600.97
2023-05-17T12:24:22.004Z,96609.47
2023-05-17T12:26:48.713Z,96609.69
2023-05-17T12:29:21.663Z,96600.78
2023-05-17T12:31:50.459Z,96603.09
2023-05-17T12:34:18.110Z,96609.28
2023-05-17T12:36:45.810Z,96613.38
2023-05-17T12:39:14.022Z,96608.78
2023-05-17T12:41:42.142Z,96603.19
2023-05-17T12:46:39.453Z,96613.63
2023-05-17T12:49:08.508Z,96614.69
2023-05-17T12:51:43.630Z,96613.56
2023-05-17T12:54:12.253Z,96615.09
2023-05-17T12:56:42.771Z,96617.31
2023-05-17T12:59:17.905Z,96620.31
2023-05-17T13:01:46.835Z,96614.28
2023-05-17T13:04:14.821Z,96629.44
2023-05-17T13:06:56.647Z,96626.69
2023-05-17T13:09:25.075Z,96617.84
2023-05-17T13:11:52.330Z,96620.06
2023-05-17T13:14:45.765Z,96623.63
2023-05-17T13:17:21.063Z,96626.16
2023-05-17T13:19:48.562Z,96623.97
2023-05-17T13:22:15.976Z,96623.53
2023-05-17T13:24:44.669Z,96622.47
2023-05-17T13:27:12.472Z,96613.28
2023-05-17T13:29:41.798Z,96613.50
2023-05-17T13:32:11.768Z,96608.00
2023-05-17T13:34:39.408Z,96610.63
2023-05-17T13:37:09.363Z,96612.94
2023-05-17T13:39:38.131Z,96600.75
2023-05-17T13:42:05.737Z,96600.81
2023-05-17T13:44:32.941Z,96612.28
2023-05-17T13:46:59.638Z,96613.34
2023-05-17T13:49:28.334Z,96612.75
2023-05-17T13:51:55.092Z,96614.94
2023-05-17T13:54:23.318Z,96624.50
2023-05-17T13:56:50.102Z,96627.50
2023-05-17T13:59:16.964Z,96619.97
2023-05-17T14:01:43.868Z,96627.19
2023-05-17T14:04:11.024Z,96631.47
2023-05-17T14:06:39.334Z,96632.16
2023-05-17T14:09:06.624Z,96627.47
2023-05-17T14:11:34.302Z,96632.63
2023-05-17T14:14:01.395Z,96625.72
2023-05-17T14:16:28.364Z,96632.63
2023-05-17T14:18:55.946Z,96638.94
2023-05-17T14:21:22.802Z,96640.28
2023-05-17T14:23:49.660Z,96638.56
2023-05-17T14:26:16.521Z,96639.47
2023-05-17T14:28:43.498Z,96641.06
2023-05-17T14:31:10.737Z,96638.22
2023-05-17T14:33:37.610Z,96648.31
2023-05-17T14:36:04.933Z,96649.25
2023-05-17T14:38:31.965Z,96650.50
2023-05-17T14:41:00.820Z,96655.78
2023-05-17T14:43:27.683Z,96656.00
2023-05-17T14:45:54.499Z,96653.53
2023-05-17T14:48:21.415Z,96663.22
2023-05-17T14:50:48.330Z,96660.47
2023-05-17T14:53:15.155Z,96660.91
2023-05-17T14:55:42.694Z,96653.47
2023-05-17T14:58:11.825Z,96653.78
2023-05-17T15:00:38.640Z,96650.69
2023-05-17T15:03:05.623Z,96653.91
2023-05-17T15:05:32.624Z,96657.53
2023-05-17T15:07:59.596Z,96660.13
2023-05-17T15:10:26.623Z,96659.09
2023-05-17T15:12:53.840Z,96657.25
2023-05-17T15:15:22.297Z,96658.41
2023-05-17T15:17:49.557Z,96662.72
2023-05-17T15:20:17.172Z,96657.56
2023-05-17T15:22:44.948Z,96667.97
2023-05-17T15:25:16.498Z,96664.03
2023-05-17T15:27:43.847Z,96671.13
2023-05-17T15:30:13.341Z,96669.66
2023-05-17T15:32:40.923Z,96669.44
2023-05-17T15:35:08.367Z,96662.81
2023-05-17T15:37:35.930Z,96671.72
2023-05-17T15:40:09.381Z,96671.50
2023-05-17T15:42:47.788Z,96673.91
2023-05-17T15:45:28.177Z,96671.84
2023-05-17T15:47:57.131Z,96672.06
2023-05-17T15:50:23.789Z,96669.25
2023-05-17T15:52:50.664Z,96672.31
2023-05-17T15:55:18.258Z,96680.44
2023-05-17T15:57:46.553Z,96676.63
2023-05-17T16:00:19.152Z,96676.75
2023-05-17T16:02:46.483Z,96669.53
2023-05-17T16:05:13.293Z,96680.09
2023-05-17T16:07:39.990Z,96667.66
2023-05-17T16:10:07.464Z,96671.16
2023-05-17T16:12:34.284Z,96661.16
2023-05-17T16:15:01.369Z,96668.31
2023-05-17T16:17:28.457Z,96660.66
2023-05-17T16:19:55.264Z,96659.03
2023-05-17T16:22:25.319Z,96660.38
2023-05-17T16:25:19.769Z,96663.41
2023-05-17T16:27:57.949Z,96665.00
2023-05-17T16:30:32.497Z,96662.72
2023-05-17T16:32:59.406Z,96669.75
2023-05-17T16:35:26.706Z,96665.84
2023-05-17T16:37:53.568Z,96682.78
2023-05-17T16:40:20.391Z,96682.31
2023-05-17T16:42:47.196Z,96686.19
2023-05-17T16:45:14.046Z,96678.09
2023-05-17T16:47:41.073Z,96681.03
2023-05-17T16:50:09.225Z,96682.72
2023-05-17T16:52:36.096Z,96685.72
2023-05-17T16:55:04.164Z,96675.56
2023-05-17T16:57:40.013Z,96672.69
2023-05-17T17:00:09.054Z,96673.25
2023-05-17T17:02:36.007Z,96670.84
2023-05-17T17:05:04.534Z,96675.69
2023-05-17T17:07:31.130Z,96674.91
2023-05-17T17:09:57.938Z,96679.56
2023-05-17T17:12:26.226Z,96670.41
2023-05-17T17:14:54.108Z,96675.59
2023-05-17T17:17:23.835Z,96683.16
2023-05-17T17:20:00.398Z,96680.41
2023-05-17T17:22:27.344Z,96679.00
2023-05-17T17:24:54.206Z,96679.97
2023-05-17T17:27:21.010Z,96684.97
2023-05-17T17:29:48.016Z,96685.78
2023-05-17T17:32:14.995Z,96694.63
2023-05-17T17:34:41.826Z,96686.25
2023-05-17T17:37:08.623Z,96689.47
2023-05-17T17:39:35.927Z,96682.91
2023-05-17T17:42:02.877Z,96685.47
2023-05-17T17:44:29.697Z,96692.41
2023-05-17T17:46:56.564Z,96693.88
2023-05-17T17:49:23.369Z,96687.41
2023-05-17T17:51:50.250Z,96678.72
2023-05-17T17:54:17.011Z,96683.72
2023-05-17T17:56:43.985Z,96689.41
2023-05-17T17:59:12.399Z,96694.09
2023-05-17T18:01:39.398Z,96698.78
2023-05-17T18:04:06.187Z,96690.16
2023-05-17T18:06:33.409Z,96696.44
2023-05-17T18:09:00.465Z,96697.09
2023-05-17T18:11:27.538Z,96692.09
2023-05-17T18:14:04.288Z,96695.63
2023-05-17T18:16:31.521Z,96693.56
2023-05-17T18:18:58.462Z,96701.63
2023-05-17T18:21:25.408Z,96701.28
2023-05-17T18:23:52.450Z,96698.09
2023-05-17T18:26:23.549Z,96702.75
2023-05-17T18:28:51.262Z,96701.28
2023-05-17T18:31:18.861Z,96702.63
2023-05-17T18:33:45.901Z,96706.31
2023-05-17T18:36:12.675Z,96703.75
2023-05-17T18:38:40.751Z,96712.97
2023-05-17T18:41:07.794Z,96714.63
2023-05-17T18:43:35.931Z,96712.53
2023-05-17T18:46:02.925Z,96718.78
2023-05-17T18:48:29.705Z,96720.25
2023-05-17T18:50:57.607Z,96725.75
2023-05-17T18:53:24.710Z,96713.84
2023-05-17T18:55:51.580Z,96719.31
2023-05-17T18:58:18.319Z,96727.22
2023-05-17T19:00:48.633Z,96732.53
2023-05-17T19:03:15.616Z,96728.38
2023-05-17T19:05:42.412Z,96733.41
2023-05-17T19:08:09.334Z,96739.69
2023-05-17T19:10:36.104Z,96743.25
2023-05-17T19:13:02.879Z,96743.25
2023-05-17T19:15:29.650Z,96756.94
2023-05-17T19:17:56.634Z,96762.69
2023-05-17T19:20:23.490Z,96761.72
2023-05-17T19:22:50.502Z,96774.47
2023-05-17T19:25:18.397Z,96773.66
2023-05-17T19:27:47.806Z,96788.66
2023-05-17T19:30:14.629Z,96793.00
2023-05-17T19:32:41.516Z,96788.66
2023-05-17T19:35:09.082Z,96795.59
2023-05-17T19:37:35.982Z,96794.13
2023-05-17T19:40:05.966Z,96799.28
2023-05-17T19:42:32.898Z,96802.19
2023-05-17T19:44:59.605Z,96804.59
2023-05-17T19:47:26.535Z,96807.47
2023-05-17T19:49:53.776Z,96813.78
2023-05-17T19:52:21.319Z,96820.53
2023-05-17T19:54:48.248Z,96822.31
2023-05-17T19:57:15.024Z,96819.56
2023-05-17T19:59:42.203Z,96813.44
2023-05-17T20:02:09.276Z,96823.09
2023-05-17T20:04:36.268Z,96835.19
2023-05-17T20:07:03.017Z,96841.31
2023-05-17T20:09:32.533Z,96859.31
2023-05-17T20:11:59.580Z,96864.53
2023-05-17T20:14:27.378Z,96858.75
2023-05-17T20:16:55.750Z,96853.47
2023-05-17T20:19:22.781Z,96844.94
2023-05-17T20:21:49.718Z,96844.16
2023-05-17T20:24:16.473Z,96849.63
2023-05-17T20:26:46.374Z,96841.59
2023-05-17T20:29:13.174Z,96851.25
2023-05-17T20:31:45.399Z,96846.59
2023-05-17T20:34:12.192Z,96839.34
2023-05-17T20:36:38.936Z,96847.41
2023-05-17T20:39:05.679Z,96842.25
2023-05-17T20:41:32.425Z,96839.34
2023-05-17T20:43:59.246Z,96838.41
2023-05-17T20:46:29.934Z,96833.41
2023-05-17T20:48:58.129Z,96836.47
2023-05-17T20:51:27.062Z,96836.47
2023-05-17T20:53:54.036Z,96831.66
2023-05-17T20:56:20.814Z,96840.34
2023-05-17T20:58:48.372Z,96839.03
2023-05-17T21:01:15.634Z,96829.56
2023-05-17T21:03:43.523Z,96833.09
2023-05-17T21:06:10.813Z,96833.25
2023-05-17T21:08:38.500Z,96823.44
2023-05-17T21:11:05.613Z,96819.56
2023-05-17T21:13:32.432Z,96826.97
2023-05-17T21:15:59.262Z,96829.22
2023-05-17T21:18:26.426Z,96814.59
2023-05-17T21:20:53.401Z,96824.41
2023-05-17T21:23:20.414Z,96818.28
2023-05-17T21:25:49.057Z,96820.19
2023-05-17T21:28:15.954Z,96822.81
2023-05-17T21:30:42.766Z,96820.38
2023-05-17T21:33:09.732Z,96818.63
2023-05-17T21:35:36.595Z,96811.69
2023-05-17T21:38:03.407Z,96815.88
2023-05-17T21:40:30.437Z,96819.25
2023-05-17T21:42:57.312Z,96826.34
2023-05-17T21:45:24.101Z,96824.09
2023-05-17T21:47:51.035Z,96816.53
2023-05-17T21:50:17.983Z,96827.94
2023-05-17T21:52:45.088Z,96819.72
2023-05-17T21:55:11.885Z,96823.75
2023-05-17T21:57:38.587Z,96821.81
2023-05-17T22:00:07.795Z,96821.81
2023-05-17T22:02:35.201Z,96814.41
2023-05-17T22:05:02.303Z,96823.44
2023-05-17T22:07:29.015Z,96823.56
2023-05-17T22:09:55.778Z,96811.38
2023-05-17T22:12:25.655Z,96810.19
2023-05-17T22:14:55.788Z,96822.59
2023-05-17T22:17:29.544Z,96819.53
2023-05-17T22:20:03.199Z,96826.16
2023-05-17T22:22:32.273Z,96821.50
2023-05-17T22:24:58.921Z,96820.84
2023-05-17T22:27:25.707Z,96816.97
2023-05-17T22:29:52.384Z,96809.91
2023-05-17T22:32:19.127Z,96816.66
2023-05-17T22:34:46.004Z,96813.09
2023-05-17T22:37:12.812Z,96819.06
2023-05-17T22:39:41.014Z,96818.25
2023-05-17T22:42:08.562Z,96817.63
2023-05-17T22:44:37.038Z,96819.25
2023-05-17T22:47:03.981Z,96828.38
2023-05-17T22:49:36.362Z,96819.06
2023-05-17T22:52:07.840Z,96814.41
2023-05-17T22:54:36.299Z,96816.66
2023-05-17T22:57:04.268Z,96823.72
2023-05-17T22:59:32.874Z,96815.53
2023-05-17T23:02:00.188Z,96804.91
2023-05-17T23:04:27.337Z,96806.03
2023-05-17T23:06:54.685Z,96805.88
2023-05-17T23:09:21.990Z,96803.47
2023-05-17T23:11:50.405Z,96798.28
2023-05-17T23:14:17.743Z,96796.38
2023-05-17T23:16:48.696Z,96791.41
2023-05-17T23:19:17.040Z,96787.06
2023-05-17T23:21:46.446Z,96785.59
2023-05-17T23:24:14.074Z,96787.06
2023-05-17T23:26:41.435Z,96794.13
2023-05-17T23:29:10.718Z,96787.22
2023-05-17T23:31:37.956Z,96779.16
2023-05-17T23:34:06.896Z,96783.97
2023-05-17T23:36:33.944Z,96782.38
2023-05-17T23:39:00.903Z,96782.06
2023-05-17T23:41:29.486Z,96776.09
2023-05-17T23:43:57.187Z,96775.94
2023-05-17T23:46:24.191Z,96775.94
2023-05-17T23:48:50.987Z,96777.38
2023-05-17T23:51:20.593Z,96767.91
2023-05-17T23:53:50.694Z,96770.78
2023-05-17T23:56:18.563Z,96775.28
2023-05-17T23:58:46.236Z,96769.34
